AAL2841 KDCA-CYYZ
Flight info
| Callsign | AAL2841 |
|---|---|
| Flight time | 1h 5m |
| Altitude | 36000 |
| Route | HORTO4 JERES Q221 DLMAR DCT WOZEE LINNG3 |
| Aircraft | A319/M-SDE3FGHIRWY/LB1 |
Departure
| Time | 2026-05-05 01:21 |
|---|---|
| Airport | Ronald Reagan Washington National Airport (KDCA) |
Arrival
| Time | 2026-05-05 02:26 |
|---|---|
| Airport | Toronto Pearson International Airport (CYYZ) |
| Time | Latitude | Longitude | Altitude | Speed | Heading |
|---|---|---|---|---|---|
| 2026-05-05 01:06 | 38.85577 | -77.04171 | 15 ft | 0 kts | 334° |
| 2026-05-05 01:13 | 38.85567 | -77.04165 | 25 ft | 4 kts | 337° |
| 2026-05-05 01:14 | 38.85541 | -77.04154 | 27 ft | 4 kts | 357° |
| 2026-05-05 01:14 | 38.85520 | -77.04161 | 27 ft | 3 kts | 69° |
| 2026-05-05 01:14 | 38.85519 | -77.04164 | 27 ft | 0 kts | 71° |
| 2026-05-05 01:16 | 38.85526 | -77.04137 | 27 ft | 6 kts | 71° |
| 2026-05-05 01:16 | 38.85541 | -77.04077 | 24 ft | 8 kts | 71° |
| 2026-05-05 01:16 | 38.85560 | -77.03996 | 27 ft | 10 kts | 75° |
| 2026-05-05 01:17 | 38.85602 | -77.03962 | 27 ft | 8 kts | 357° |
| 2026-05-05 01:17 | 38.85667 | -77.03968 | 25 ft | 10 kts | 356° |
| 2026-05-05 01:17 | 38.85742 | -77.03975 | 29 ft | 12 kts | 355° |
| 2026-05-05 01:17 | 38.85832 | -77.03986 | 29 ft | 15 kts | 354° |
| 2026-05-05 01:18 | 38.85933 | -77.03983 | 27 ft | 14 kts | 13° |
| 2026-05-05 01:18 | 38.86002 | -77.03957 | 24 ft | 8 kts | 16° |
| 2026-05-05 01:18 | 38.86041 | -77.03943 | 24 ft | 0 kts | 16° |
| 2026-05-05 01:18 | 38.86042 | -77.03942 | 24 ft | 1 kts | 16° |
| 2026-05-05 01:19 | 38.86072 | -77.03930 | 24 ft | 7 kts | 22° |
| 2026-05-05 01:19 | 38.86092 | -77.03880 | 23 ft | 5 kts | 107° |
| 2026-05-05 01:19 | 38.86062 | -77.03867 | 23 ft | 0 kts | 178° |
| 2026-05-05 01:20 | 38.86057 | -77.03867 | 23 ft | 3 kts | 178° |
| 2026-05-05 01:20 | 38.85922 | -77.03855 | 27 ft | 55 kts | 175° |
| 2026-05-05 01:20 | 38.85261 | -77.03787 | 26 ft | 132 kts | 175° |
| 2026-05-05 01:20 | 38.84267 | -77.03678 | 596 ft | 143 kts | 176° |
| 2026-05-05 01:21 | 38.83279 | -77.03633 | 1438 ft | 141 kts | 182° |
| 2026-05-05 01:21 | 38.82294 | -77.03618 | 2161 ft | 150 kts | 184° |
| 2026-05-05 01:21 | 38.81170 | -77.03608 | 2706 ft | 173 kts | 185° |
| 2026-05-05 01:21 | 38.79883 | -77.03594 | 3167 ft | 197 kts | 185° |
| 2026-05-05 01:22 | 38.78423 | -77.03575 | 3752 ft | 222 kts | 184° |
| 2026-05-05 01:22 | 38.76790 | -77.03588 | 4409 ft | 244 kts | 190° |
| 2026-05-05 01:22 | 38.75264 | -77.04486 | 5311 ft | 247 kts | 226° |
| 2026-05-05 01:22 | 38.74447 | -77.06417 | 6315 ft | 252 kts | 256° |
| 2026-05-05 01:23 | 38.74211 | -77.08652 | 7431 ft | 254 kts | 267° |
| 2026-05-05 01:23 | 38.74178 | -77.10928 | 8545 ft | 257 kts | 271° |
| 2026-05-05 01:23 | 38.74181 | -77.13225 | 9662 ft | 259 kts | 272° |
| 2026-05-05 01:23 | 38.74154 | -77.15571 | 10482 ft | 273 kts | 271° |
| 2026-05-05 01:24 | 38.74083 | -77.18109 | 10941 ft | 297 kts | 270° |
| 2026-05-05 01:24 | 38.74178 | -77.20798 | 11654 ft | 307 kts | 282° |
| 2026-05-05 01:24 | 38.74884 | -77.23391 | 12528 ft | 313 kts | 297° |
| 2026-05-05 01:24 | 38.76213 | -77.25631 | 13425 ft | 321 kts | 314° |
| 2026-05-05 01:25 | 38.78105 | -77.27238 | 14235 ft | 333 kts | 332° |
| 2026-05-05 01:25 | 38.80257 | -77.28317 | 14989 ft | 339 kts | 335° |
| 2026-05-05 01:25 | 38.82515 | -77.29421 | 15751 ft | 346 kts | 336° |
| 2026-05-05 01:25 | 38.84780 | -77.30531 | 16493 ft | 352 kts | 335° |
| 2026-05-05 01:26 | 38.87061 | -77.31735 | 17215 ft | 358 kts | 334° |
| 2026-05-05 01:26 | 38.89325 | -77.33034 | 17928 ft | 363 kts | 333° |
| 2026-05-05 01:26 | 38.91639 | -77.34418 | 18588 ft | 369 kts | 332° |
| 2026-05-05 01:26 | 38.93978 | -77.35834 | 19246 ft | 374 kts | 332° |
| 2026-05-05 01:27 | 38.96345 | -77.37259 | 19944 ft | 378 kts | 333° |
| 2026-05-05 01:27 | 38.98742 | -77.38686 | 20645 ft | 381 kts | 333° |
| 2026-05-05 01:27 | 39.01168 | -77.40121 | 21338 ft | 385 kts | 333° |
| 2026-05-05 01:27 | 39.03613 | -77.41559 | 22021 ft | 389 kts | 333° |
| 2026-05-05 01:28 | 39.06084 | -77.43011 | 22718 ft | 392 kts | 333° |
| 2026-05-05 01:28 | 39.08581 | -77.44479 | 23354 ft | 396 kts | 333° |
| 2026-05-05 01:28 | 39.11195 | -77.45688 | 23904 ft | 402 kts | 343° |
| 2026-05-05 01:28 | 39.13979 | -77.46277 | 24425 ft | 408 kts | 354° |
| 2026-05-05 01:29 | 39.16838 | -77.46304 | 24946 ft | 413 kts | 359° |
| 2026-05-05 01:29 | 39.19714 | -77.46247 | 25465 ft | 415 kts | 359° |
| 2026-05-05 01:29 | 39.22582 | -77.46193 | 25965 ft | 418 kts | 359° |
| 2026-05-05 01:29 | 39.25501 | -77.46140 | 26459 ft | 421 kts | 359° |
| 2026-05-05 01:30 | 39.28444 | -77.46090 | 26962 ft | 423 kts | 358° |
| 2026-05-05 01:30 | 39.31402 | -77.46042 | 27460 ft | 426 kts | 358° |
| 2026-05-05 01:30 | 39.33370 | -77.46011 | 27786 ft | 428 kts | 358° |
| 2026-05-05 01:30 | 39.36359 | -77.45965 | 28270 ft | 430 kts | 358° |
| 2026-05-05 01:31 | 39.39364 | -77.45920 | 28742 ft | 433 kts | 358° |
| 2026-05-05 01:31 | 39.42391 | -77.45873 | 29203 ft | 436 kts | 358° |
| 2026-05-05 01:31 | 39.45439 | -77.45826 | 29648 ft | 439 kts | 358° |
| 2026-05-05 01:31 | 39.48498 | -77.45776 | 30070 ft | 441 kts | 359° |
| 2026-05-05 01:32 | 39.51581 | -77.45723 | 30430 ft | 444 kts | 358° |
| 2026-05-05 01:32 | 39.54672 | -77.45672 | 30795 ft | 446 kts | 358° |
| 2026-05-05 01:32 | 39.57781 | -77.45620 | 31159 ft | 447 kts | 358° |
| 2026-05-05 01:32 | 39.60904 | -77.45566 | 31516 ft | 449 kts | 358° |
| 2026-05-05 01:33 | 39.64036 | -77.45513 | 31857 ft | 451 kts | 358° |
| 2026-05-05 01:33 | 39.67165 | -77.45460 | 32347 ft | 449 kts | 358° |
| 2026-05-05 01:33 | 39.70289 | -77.45407 | 32872 ft | 447 kts | 358° |
| 2026-05-05 01:33 | 39.73388 | -77.45356 | 33400 ft | 444 kts | 358° |
| 2026-05-05 01:34 | 39.76437 | -77.45309 | 33932 ft | 442 kts | 358° |
| 2026-05-05 01:34 | 39.79509 | -77.45259 | 34396 ft | 440 kts | 358° |
| 2026-05-05 01:34 | 39.82569 | -77.45208 | 34832 ft | 439 kts | 357° |
| 2026-05-05 01:34 | 39.85631 | -77.45158 | 35239 ft | 439 kts | 357° |
| 2026-05-05 01:35 | 39.88678 | -77.45109 | 35636 ft | 438 kts | 357° |
| 2026-05-05 01:35 | 39.91736 | -77.45061 | 35846 ft | 439 kts | 357° |
| 2026-05-05 01:35 | 39.97805 | -77.44952 | 35884 ft | 434 kts | 357° |
| 2026-05-05 01:36 | 40.03845 | -77.44836 | 35880 ft | 433 kts | 356° |
| 2026-05-05 01:36 | 40.09841 | -77.44733 | 35875 ft | 433 kts | 356° |
| 2026-05-05 01:37 | 40.15856 | -77.44635 | 35872 ft | 432 kts | 356° |
| 2026-05-05 01:37 | 40.21877 | -77.44533 | 35868 ft | 432 kts | 356° |
| 2026-05-05 01:38 | 40.27880 | -77.44437 | 35866 ft | 431 kts | 356° |
| 2026-05-05 01:38 | 40.33888 | -77.44340 | 35866 ft | 431 kts | 356° |
| 2026-05-05 01:39 | 40.39893 | -77.44239 | 35854 ft | 431 kts | 356° |
| 2026-05-05 01:39 | 40.45897 | -77.44133 | 35856 ft | 431 kts | 356° |
| 2026-05-05 01:40 | 40.51903 | -77.44032 | 35857 ft | 431 kts | 356° |
| 2026-05-05 01:40 | 40.57903 | -77.43929 | 35855 ft | 431 kts | 356° |
| 2026-05-05 01:41 | 40.63868 | -77.43827 | 35856 ft | 431 kts | 356° |
| 2026-05-05 01:41 | 40.69878 | -77.43730 | 35853 ft | 432 kts | 356° |
| 2026-05-05 01:42 | 40.75886 | -77.43623 | 35852 ft | 432 kts | 356° |
| 2026-05-05 01:42 | 40.81904 | -77.43508 | 35848 ft | 432 kts | 356° |
| 2026-05-05 01:43 | 40.87923 | -77.43403 | 35844 ft | 432 kts | 356° |
| 2026-05-05 01:43 | 40.93936 | -77.43300 | 35839 ft | 432 kts | 356° |
| 2026-05-05 01:44 | 40.99908 | -77.43194 | 35834 ft | 432 kts | 356° |
| 2026-05-05 01:44 | 41.05929 | -77.43094 | 35832 ft | 432 kts | 356° |
| 2026-05-05 01:45 | 41.11951 | -77.42994 | 35826 ft | 432 kts | 356° |
| 2026-05-05 01:45 | 41.17972 | -77.42889 | 35821 ft | 432 kts | 356° |
| 2026-05-05 01:46 | 41.23991 | -77.42778 | 35823 ft | 432 kts | 356° |
| 2026-05-05 01:46 | 41.30006 | -77.42679 | 35824 ft | 432 kts | 356° |
| 2026-05-05 01:47 | 41.36018 | -77.42583 | 35822 ft | 432 kts | 356° |
| 2026-05-05 01:47 | 41.41980 | -77.42475 | 35823 ft | 432 kts | 356° |
| 2026-05-05 01:48 | 41.47990 | -77.42364 | 35826 ft | 431 kts | 355° |
| 2026-05-05 01:48 | 41.53994 | -77.42248 | 35826 ft | 431 kts | 355° |
| 2026-05-05 01:49 | 41.59995 | -77.42143 | 35824 ft | 431 kts | 355° |
| 2026-05-05 01:49 | 41.65972 | -77.42260 | 35822 ft | 425 kts | 347° |
| 2026-05-05 01:50 | 41.71513 | -77.44535 | 35818 ft | 413 kts | 328° |
| 2026-05-05 01:50 | 41.76141 | -77.48859 | 35817 ft | 407 kts | 318° |
| 2026-05-05 01:51 | 41.80614 | -77.53525 | 35813 ft | 407 kts | 319° |
| 2026-05-05 01:51 | 41.85088 | -77.58182 | 35813 ft | 407 kts | 318° |
| 2026-05-05 01:52 | 41.89552 | -77.62847 | 35811 ft | 407 kts | 318° |
| 2026-05-05 01:52 | 41.94024 | -77.67534 | 35814 ft | 407 kts | 318° |
| 2026-05-05 01:53 | 41.98487 | -77.72216 | 35813 ft | 407 kts | 318° |
| 2026-05-05 01:53 | 42.02943 | -77.76897 | 35810 ft | 407 kts | 318° |
| 2026-05-05 01:54 | 42.07405 | -77.81591 | 35813 ft | 407 kts | 318° |
| 2026-05-05 01:54 | 42.11869 | -77.86302 | 35815 ft | 407 kts | 318° |
| 2026-05-05 01:55 | 42.16297 | -77.90983 | 35814 ft | 407 kts | 318° |
| 2026-05-05 01:55 | 42.20751 | -77.95703 | 35821 ft | 407 kts | 318° |
| 2026-05-05 01:56 | 42.25198 | -78.00431 | 35816 ft | 407 kts | 317° |
| 2026-05-05 01:56 | 42.29650 | -78.05158 | 35802 ft | 407 kts | 317° |
| 2026-05-05 01:57 | 42.34113 | -78.09897 | 35802 ft | 407 kts | 317° |
| 2026-05-05 01:57 | 42.38565 | -78.14645 | 35794 ft | 407 kts | 317° |
| 2026-05-05 01:58 | 42.43012 | -78.19403 | 35519 ft | 408 kts | 317° |
| 2026-05-05 01:58 | 42.45243 | -78.21795 | 35259 ft | 408 kts | 317° |
| 2026-05-05 01:58 | 42.47471 | -78.24182 | 35010 ft | 408 kts | 317° |
| 2026-05-05 01:59 | 42.49698 | -78.26569 | 34763 ft | 409 kts | 317° |
| 2026-05-05 01:59 | 42.51898 | -78.28932 | 34516 ft | 409 kts | 317° |
| 2026-05-05 01:59 | 42.54128 | -78.31333 | 34265 ft | 409 kts | 317° |
| 2026-05-05 01:59 | 42.56363 | -78.33738 | 34025 ft | 409 kts | 317° |
| 2026-05-05 02:00 | 42.58598 | -78.36146 | 33781 ft | 410 kts | 317° |
| 2026-05-05 02:00 | 42.60835 | -78.38553 | 33509 ft | 410 kts | 318° |
| 2026-05-05 02:00 | 42.63071 | -78.40958 | 33231 ft | 411 kts | 317° |
| 2026-05-05 02:00 | 42.65316 | -78.43378 | 32951 ft | 412 kts | 317° |
| 2026-05-05 02:01 | 42.67561 | -78.45803 | 32055 ft | 414 kts | 317° |
| 2026-05-05 02:01 | 42.69831 | -78.48265 | 30910 ft | 420 kts | 317° |
| 2026-05-05 02:01 | 42.72129 | -78.50759 | 30030 ft | 422 kts | 317° |
| 2026-05-05 02:01 | 42.74405 | -78.53224 | 29412 ft | 414 kts | 317° |
| 2026-05-05 02:02 | 42.76645 | -78.55649 | 28747 ft | 408 kts | 317° |
| 2026-05-05 02:02 | 42.78849 | -78.58035 | 28118 ft | 402 kts | 317° |
| 2026-05-05 02:02 | 42.80994 | -78.60363 | 27493 ft | 397 kts | 316° |
| 2026-05-05 02:02 | 42.83141 | -78.62692 | 26890 ft | 392 kts | 316° |
| 2026-05-05 02:03 | 42.85258 | -78.64991 | 26288 ft | 387 kts | 316° |
| 2026-05-05 02:03 | 42.87376 | -78.67296 | 25689 ft | 382 kts | 316° |
| 2026-05-05 02:03 | 42.89420 | -78.69526 | 25111 ft | 379 kts | 316° |
| 2026-05-05 02:03 | 42.91497 | -78.71793 | 24521 ft | 376 kts | 316° |
| 2026-05-05 02:04 | 42.93435 | -78.74082 | 23945 ft | 370 kts | 310° |
| 2026-05-05 02:04 | 42.95111 | -78.76705 | 23373 ft | 365 kts | 304° |
| 2026-05-05 02:04 | 42.96712 | -78.79378 | 22787 ft | 363 kts | 305° |
| 2026-05-05 02:04 | 42.98306 | -78.82028 | 22264 ft | 359 kts | 305° |
| 2026-05-05 02:05 | 42.99886 | -78.84645 | 21798 ft | 355 kts | 305° |
| 2026-05-05 02:05 | 43.01451 | -78.87235 | 21314 ft | 351 kts | 305° |
| 2026-05-05 02:05 | 43.02991 | -78.89790 | 20874 ft | 346 kts | 304° |
| 2026-05-05 02:05 | 43.04509 | -78.92318 | 20427 ft | 342 kts | 304° |
| 2026-05-05 02:06 | 43.06010 | -78.94815 | 19973 ft | 338 kts | 304° |
| 2026-05-05 02:06 | 43.07495 | -78.97286 | 19527 ft | 334 kts | 304° |
| 2026-05-05 02:06 | 43.08962 | -78.99736 | 19055 ft | 332 kts | 304° |
| 2026-05-05 02:06 | 43.10423 | -79.02181 | 18605 ft | 331 kts | 304° |
| 2026-05-05 02:07 | 43.11877 | -79.04614 | 18138 ft | 330 kts | 304° |
| 2026-05-05 02:07 | 43.13322 | -79.07034 | 17940 ft | 329 kts | 304° |
| 2026-05-05 02:07 | 43.14768 | -79.09456 | 17443 ft | 327 kts | 304° |
| 2026-05-05 02:07 | 43.16333 | -79.11786 | 16961 ft | 345 kts | 316° |
| 2026-05-05 02:08 | 43.18486 | -79.13375 | 16696 ft | 363 kts | 337° |
| 2026-05-05 02:08 | 43.20964 | -79.14181 | 16444 ft | 367 kts | 342° |
| 2026-05-05 02:08 | 43.23434 | -79.14896 | 16190 ft | 366 kts | 342° |
| 2026-05-05 02:08 | 43.25925 | -79.15597 | 15936 ft | 365 kts | 342° |
| 2026-05-05 02:09 | 43.28438 | -79.16304 | 15684 ft | 363 kts | 342° |
| 2026-05-05 02:09 | 43.30868 | -79.16994 | 15238 ft | 358 kts | 342° |
| 2026-05-05 02:09 | 43.33304 | -79.17692 | 14731 ft | 355 kts | 342° |
| 2026-05-05 02:09 | 43.35715 | -79.18388 | 14240 ft | 352 kts | 342° |
| 2026-05-05 02:10 | 43.38101 | -79.19081 | 13757 ft | 349 kts | 342° |
| 2026-05-05 02:10 | 43.40468 | -79.19771 | 13252 ft | 346 kts | 342° |
| 2026-05-05 02:10 | 43.42813 | -79.20457 | 12697 ft | 343 kts | 342° |
| 2026-05-05 02:10 | 43.45146 | -79.21138 | 12134 ft | 341 kts | 342° |
| 2026-05-05 02:11 | 43.47429 | -79.21806 | 11589 ft | 338 kts | 342° |
| 2026-05-05 02:11 | 43.49724 | -79.22479 | 11042 ft | 336 kts | 342° |
| 2026-05-05 02:11 | 43.52008 | -79.23152 | 10493 ft | 334 kts | 341° |
| 2026-05-05 02:11 | 43.54274 | -79.23820 | 9961 ft | 332 kts | 341° |
| 2026-05-05 02:12 | 43.56488 | -79.24466 | 9811 ft | 318 kts | 341° |
| 2026-05-05 02:12 | 43.60609 | -79.25651 | 9427 ft | 290 kts | 341° |
| 2026-05-05 02:12 | 43.62570 | -79.26226 | 9007 ft | 288 kts | 340° |
| 2026-05-05 02:13 | 43.64522 | -79.26807 | 8592 ft | 286 kts | 340° |
| 2026-05-05 02:13 | 43.66469 | -79.27388 | 8174 ft | 286 kts | 340° |
| 2026-05-05 02:13 | 43.68414 | -79.27967 | 7729 ft | 286 kts | 341° |
| 2026-05-05 02:13 | 43.70358 | -79.28542 | 7303 ft | 286 kts | 341° |
| 2026-05-05 02:14 | 43.72276 | -79.29100 | 6895 ft | 285 kts | 342° |
| 2026-05-05 02:14 | 43.74283 | -79.29244 | 6464 ft | 294 kts | 359° |
| 2026-05-05 02:14 | 43.76297 | -79.28604 | 6047 ft | 300 kts | 17° |
| 2026-05-05 02:14 | 43.78135 | -79.27195 | 5609 ft | 305 kts | 35° |
| 2026-05-05 02:15 | 43.79656 | -79.25157 | 5293 ft | 301 kts | 46° |
| 2026-05-05 02:15 | 43.81057 | -79.23090 | 5174 ft | 287 kts | 43° |
| 2026-05-05 02:15 | 43.82087 | -79.21996 | 5084 ft | 276 kts | 26° |
| 2026-05-05 02:15 | 43.84382 | -79.21022 | 5012 ft | 251 kts | 355° |
| 2026-05-05 02:16 | 43.85540 | -79.21109 | 5018 ft | 243 kts | 341° |
| 2026-05-05 02:16 | 43.87535 | -79.22228 | 5018 ft | 227 kts | 315° |
| 2026-05-05 02:16 | 43.88655 | -79.23679 | 5018 ft | 216 kts | 298° |
| 2026-05-05 02:16 | 43.89195 | -79.24844 | 5017 ft | 210 kts | 288° |
| 2026-05-05 02:17 | 43.89661 | -79.26714 | 5015 ft | 202 kts | 273° |
| 2026-05-05 02:17 | 43.89733 | -79.28597 | 5016 ft | 196 kts | 259° |
| 2026-05-05 02:17 | 43.89444 | -79.30425 | 5009 ft | 193 kts | 246° |
| 2026-05-05 02:17 | 43.88844 | -79.32071 | 5010 ft | 192 kts | 237° |
| 2026-05-05 02:18 | 43.88154 | -79.33654 | 4948 ft | 192 kts | 237° |
| 2026-05-05 02:18 | 43.87476 | -79.35226 | 4679 ft | 189 kts | 238° |
| 2026-05-05 02:18 | 43.86804 | -79.36785 | 4396 ft | 188 kts | 238° |
| 2026-05-05 02:18 | 43.86138 | -79.38331 | 4137 ft | 185 kts | 237° |
| 2026-05-05 02:19 | 43.85444 | -79.39827 | 3834 ft | 184 kts | 232° |
| 2026-05-05 02:19 | 43.84637 | -79.41195 | 3565 ft | 182 kts | 229° |
| 2026-05-05 02:19 | 43.83792 | -79.42488 | 3305 ft | 180 kts | 227° |
| 2026-05-05 02:19 | 43.82943 | -79.43748 | 3084 ft | 178 kts | 227° |
| 2026-05-05 02:20 | 43.82093 | -79.44999 | 3012 ft | 178 kts | 226° |
| 2026-05-05 02:20 | 43.81262 | -79.46216 | 3004 ft | 167 kts | 226° |
| 2026-05-05 02:20 | 43.80497 | -79.47336 | 3008 ft | 153 kts | 226° |
| 2026-05-05 02:20 | 43.79802 | -79.48352 | 3003 ft | 138 kts | 226° |
| 2026-05-05 02:21 | 43.79180 | -79.49262 | 3003 ft | 128 kts | 226° |
| 2026-05-05 02:21 | 43.78578 | -79.50142 | 3003 ft | 124 kts | 227° |
| 2026-05-05 02:21 | 43.77988 | -79.51005 | 2933 ft | 123 kts | 226° |
| 2026-05-05 02:21 | 43.77402 | -79.51860 | 2823 ft | 122 kts | 225° |
| 2026-05-05 02:22 | 43.76860 | -79.52653 | 2687 ft | 105 kts | 225° |
| 2026-05-05 02:22 | 43.76378 | -79.53356 | 2560 ft | 97 kts | 225° |
| 2026-05-05 02:22 | 43.75922 | -79.54021 | 2438 ft | 93 kts | 224° |
| 2026-05-05 02:22 | 43.75477 | -79.54671 | 2325 ft | 93 kts | 224° |
| 2026-05-05 02:23 | 43.75028 | -79.55324 | 2197 ft | 94 kts | 224° |
| 2026-05-05 02:23 | 43.74574 | -79.55988 | 2077 ft | 96 kts | 224° |
| 2026-05-05 02:23 | 43.74097 | -79.56681 | 1963 ft | 109 kts | 225° |
| 2026-05-05 02:23 | 43.73543 | -79.57489 | 1792 ft | 121 kts | 224° |
| 2026-05-05 02:24 | 43.72971 | -79.58328 | 1591 ft | 120 kts | 224° |
| 2026-05-05 02:24 | 43.72394 | -79.59173 | 1461 ft | 121 kts | 224° |
| 2026-05-05 02:24 | 43.71815 | -79.60018 | 1298 ft | 120 kts | 224° |
| 2026-05-05 02:24 | 43.71235 | -79.60861 | 1116 ft | 120 kts | 224° |
| 2026-05-05 02:25 | 43.70664 | -79.61691 | 956 ft | 118 kts | 223° |
| 2026-05-05 02:25 | 43.70098 | -79.62511 | 791 ft | 118 kts | 223° |
| 2026-05-05 02:25 | 43.69543 | -79.63316 | 664 ft | 117 kts | 223° |
| 2026-05-05 02:25 | 43.68988 | -79.64126 | 573 ft | 110 kts | 223° |
| 2026-05-05 02:26 | 43.68554 | -79.64753 | 564 ft | 66 kts | 226° |
| 2026-05-05 02:26 | 43.68367 | -79.65017 | 570 ft | 25 kts | 220° |
| 2026-05-05 02:26 | 43.68223 | -79.65090 | 565 ft | 18 kts | 196° |
| 2026-05-05 02:26 | 43.68128 | -79.65103 | 572 ft | 13 kts | 152° |
| 2026-05-05 02:27 | 43.68105 | -79.64998 | 573 ft | 13 kts | 51° |
| 2026-05-05 02:27 | 43.68174 | -79.64901 | 571 ft | 15 kts | 46° |
| 2026-05-05 02:27 | 43.68251 | -79.64790 | 573 ft | 17 kts | 47° |
| 2026-05-05 02:27 | 43.68338 | -79.64662 | 570 ft | 21 kts | 46° |
| 2026-05-05 02:28 | 43.68446 | -79.64507 | 567 ft | 24 kts | 46° |
| 2026-05-05 02:28 | 43.68568 | -79.64333 | 567 ft | 26 kts | 46° |
| 2026-05-05 02:28 | 43.68659 | -79.64201 | 569 ft | 12 kts | 46° |
| 2026-05-05 02:28 | 43.68722 | -79.64108 | 572 ft | 15 kts | 47° |
| 2026-05-05 02:29 | 43.68796 | -79.64000 | 573 ft | 15 kts | 46° |
| 2026-05-05 02:29 | 43.68875 | -79.63886 | 572 ft | 18 kts | 47° |
| 2026-05-05 02:29 | 43.68967 | -79.63752 | 570 ft | 20 kts | 46° |
| 2026-05-05 02:29 | 43.69028 | -79.63644 | 570 ft | 13 kts | 79° |
| 2026-05-05 02:30 | 43.68969 | -79.63532 | 565 ft | 16 kts | 139° |
| 2026-05-05 02:30 | 43.68882 | -79.63420 | 566 ft | 18 kts | 136° |
| 2026-05-05 02:30 | 43.68782 | -79.63290 | 563 ft | 21 kts | 137° |
| 2026-05-05 02:30 | 43.68670 | -79.63144 | 562 ft | 23 kts | 137° |
| 2026-05-05 02:31 | 43.68551 | -79.62987 | 565 ft | 24 kts | 136° |
| 2026-05-05 02:31 | 43.68426 | -79.62825 | 563 ft | 25 kts | 136° |
| 2026-05-05 02:31 | 43.68329 | -79.62699 | 565 ft | 18 kts | 137° |
| 2026-05-05 02:31 | 43.68238 | -79.62579 | 564 ft | 14 kts | 136° |
| 2026-05-05 02:32 | 43.68229 | -79.62472 | 564 ft | 15 kts | 47° |
| 2026-05-05 02:32 | 43.68303 | -79.62388 | 563 ft | 12 kts | 14° |
| 2026-05-05 02:32 | 43.68377 | -79.62456 | 562 ft | 15 kts | 316° |
| 2026-05-05 02:32 | 43.68457 | -79.62560 | 567 ft | 16 kts | 316° |
| 2026-05-05 02:33 | 43.68531 | -79.62595 | 565 ft | 10 kts | 28° |
| 2026-05-05 02:33 | 43.68586 | -79.62512 | 564 ft | 13 kts | 49° |
| 2026-05-05 02:33 | 43.68613 | -79.62432 | 562 ft | 7 kts | 83° |
| 2026-05-05 02:33 | 43.68592 | -79.62384 | 564 ft | 5 kts | 149° |
| 2026-05-05 02:34 | 43.68572 | -79.62365 | 567 ft | 2 kts | 144° |
| 2026-05-05 02:34 | 43.68571 | -79.62364 | 567 ft | 0 kts | 144° |